ANA501 RJTT-RKSI
Flight info
| Callsign | ANA501 |
|---|---|
| Flight time | 1h 55m |
| Altitude | 40000 |
| Route | BEKLA4C BEKLA Y18 PIGAP Y182 BIDIK Y16 SAPRA Y685 GUKDO GUKDO2C |
| Aircraft | B77W/H-V/N |
Departure
| Time | 2026-05-04 19:12 |
|---|---|
| Airport | Tokyo Haneda International Airport (RJTT) |
Arrival
| Time | 2026-05-04 21:08 |
|---|---|
| Airport | Incheon International Airport (RKSI) |
| Time | Latitude | Longitude | Altitude | Speed | Heading |
|---|---|---|---|---|---|
| 2026-05-04 18:53 | 35.54859 | 139.79388 | 27 ft | 0 kts | 330° |
| 2026-05-04 19:00 | 35.54861 | 139.79387 | 27 ft | 0 kts | 330° |
| 2026-05-04 19:01 | 35.54848 | 139.79396 | 27 ft | 2 kts | 330° |
| 2026-05-04 19:01 | 35.54834 | 139.79406 | 26 ft | 2 kts | 330° |
| 2026-05-04 19:01 | 35.54819 | 139.79417 | 26 ft | 2 kts | 330° |
| 2026-05-04 19:01 | 35.54804 | 139.79427 | 26 ft | 2 kts | 330° |
| 2026-05-04 19:02 | 35.54790 | 139.79437 | 26 ft | 2 kts | 330° |
| 2026-05-04 19:02 | 35.54775 | 139.79448 | 26 ft | 2 kts | 330° |
| 2026-05-04 19:02 | 35.54760 | 139.79458 | 26 ft | 2 kts | 330° |
| 2026-05-04 19:02 | 35.54746 | 139.79468 | 26 ft | 2 kts | 330° |
| 2026-05-04 19:03 | 35.54731 | 139.79479 | 26 ft | 2 kts | 330° |
| 2026-05-04 19:03 | 35.54725 | 139.79483 | 27 ft | 0 kts | 330° |
| 2026-05-04 19:04 | 35.54733 | 139.79478 | 26 ft | 8 kts | 330° |
| 2026-05-04 19:04 | 35.54845 | 139.79478 | 28 ft | 20 kts | 37° |
| 2026-05-04 19:04 | 35.54858 | 139.79495 | 28 ft | 0 kts | 57° |
| 2026-05-04 19:04 | 35.54859 | 139.79497 | 28 ft | 1 kts | 65° |
| 2026-05-04 19:05 | 35.54858 | 139.79504 | 28 ft | 1 kts | 91° |
| 2026-05-04 19:05 | 35.54854 | 139.79511 | 28 ft | 1 kts | 121° |
| 2026-05-04 19:05 | 35.54845 | 139.79520 | 28 ft | 2 kts | 142° |
| 2026-05-04 19:05 | 35.54824 | 139.79534 | 28 ft | 4 kts | 153° |
| 2026-05-04 19:06 | 35.54775 | 139.79565 | 28 ft | 15 kts | 152° |
| 2026-05-04 19:06 | 35.54618 | 139.79665 | 28 ft | 35 kts | 152° |
| 2026-05-04 19:06 | 35.54345 | 139.79840 | 28 ft | 53 kts | 152° |
| 2026-05-04 19:06 | 35.54080 | 139.80053 | 28 ft | 44 kts | 150° |
| 2026-05-04 19:07 | 35.53968 | 139.80134 | 28 ft | 0 kts | 149° |
| 2026-05-04 19:07 | 35.53966 | 139.80136 | 28 ft | 1 kts | 149° |
| 2026-05-04 19:07 | 35.53955 | 139.80144 | 28 ft | 3 kts | 149° |
| 2026-05-04 19:08 | 35.53935 | 139.80158 | 28 ft | 4 kts | 149° |
| 2026-05-04 19:08 | 35.53909 | 139.80179 | 28 ft | 5 kts | 142° |
| 2026-05-04 19:08 | 35.53886 | 139.80215 | 28 ft | 6 kts | 113° |
| 2026-05-04 19:08 | 35.53887 | 139.80265 | 28 ft | 6 kts | 78° |
| 2026-05-04 19:09 | 35.53903 | 139.80320 | 18 ft | 7 kts | 65° |
| 2026-05-04 19:09 | 35.53923 | 139.80368 | 35 ft | 0 kts | 62° |
| 2026-05-04 19:10 | 35.53927 | 139.80377 | 32 ft | 4 kts | 62° |
| 2026-05-04 19:10 | 35.53957 | 139.80434 | 28 ft | 10 kts | 48° |
| 2026-05-04 19:10 | 35.54009 | 139.80460 | 29 ft | 7 kts | 351° |
| 2026-05-04 19:10 | 35.54052 | 139.80439 | 29 ft | 6 kts | 335° |
| 2026-05-04 19:11 | 35.54091 | 139.80417 | 29 ft | 6 kts | 335° |
| 2026-05-04 19:11 | 35.54125 | 139.80397 | 29 ft | 5 kts | 332° |
| 2026-05-04 19:11 | 35.54157 | 139.80375 | 29 ft | 5 kts | 330° |
| 2026-05-04 19:11 | 35.54194 | 139.80349 | 29 ft | 15 kts | 330° |
| 2026-05-04 19:12 | 35.54665 | 139.80018 | 29 ft | 142 kts | 330° |
| 2026-05-04 19:12 | 35.56953 | 139.78409 | 2892 ft | 194 kts | 319° |
| 2026-05-04 19:12 | 35.57762 | 139.76906 | 4398 ft | 227 kts | 289° |
| 2026-05-04 19:13 | 35.58524 | 139.75209 | 5708 ft | 238 kts | 314° |
| 2026-05-04 19:13 | 35.60041 | 139.74305 | 6602 ft | 259 kts | 349° |
| 2026-05-04 19:13 | 35.61982 | 139.74701 | 7612 ft | 312 kts | 21° |
| 2026-05-04 19:13 | 35.63802 | 139.76443 | 8620 ft | 348 kts | 49° |
| 2026-05-04 19:14 | 35.64866 | 139.79098 | 9517 ft | 359 kts | 76° |
| 2026-05-04 19:14 | 35.65051 | 139.82172 | 10022 ft | 365 kts | 88° |
| 2026-05-04 19:14 | 35.65552 | 139.85197 | 10019 ft | 361 kts | 62° |
| 2026-05-04 19:14 | 35.67101 | 139.87563 | 10179 ft | 356 kts | 33° |
| 2026-05-04 19:15 | 35.69346 | 139.88768 | 10401 ft | 353 kts | 4° |
| 2026-05-04 19:15 | 35.71752 | 139.88575 | 10613 ft | 344 kts | 336° |
| 2026-05-04 19:15 | 35.73730 | 139.87074 | 10798 ft | 330 kts | 308° |
| 2026-05-04 19:15 | 35.74899 | 139.84762 | 11006 ft | 317 kts | 292° |
| 2026-05-04 19:16 | 35.75545 | 139.82143 | 11204 ft | 319 kts | 271° |
| 2026-05-04 19:16 | 35.75400 | 139.79493 | 11678 ft | 314 kts | 269° |
| 2026-05-04 19:16 | 35.75858 | 139.76848 | 12178 ft | 319 kts | 287° |
| 2026-05-04 19:16 | 35.76463 | 139.74221 | 12738 ft | 322 kts | 278° |
| 2026-05-04 19:17 | 35.76706 | 139.71473 | 13264 ft | 318 kts | 274° |
| 2026-05-04 19:17 | 35.77179 | 139.68800 | 13795 ft | 321 kts | 284° |
| 2026-05-04 19:17 | 35.77896 | 139.66182 | 14377 ft | 327 kts | 285° |
| 2026-05-04 19:17 | 35.78677 | 139.63435 | 15191 ft | 350 kts | 285° |
| 2026-05-04 19:18 | 35.79468 | 139.60549 | 15946 ft | 358 kts | 284° |
| 2026-05-04 19:18 | 35.80234 | 139.57640 | 16706 ft | 363 kts | 283° |
| 2026-05-04 19:18 | 35.81002 | 139.54615 | 17507 ft | 367 kts | 282° |
| 2026-05-04 19:18 | 35.81745 | 139.51633 | 18302 ft | 369 kts | 282° |
| 2026-05-04 19:19 | 35.82494 | 139.48594 | 19019 ft | 371 kts | 281° |
| 2026-05-04 19:19 | 35.82964 | 139.45506 | 19718 ft | 363 kts | 269° |
| 2026-05-04 19:19 | 35.82986 | 139.42401 | 20457 ft | 363 kts | 267° |
| 2026-05-04 19:19 | 35.82992 | 139.39267 | 21213 ft | 367 kts | 267° |
| 2026-05-04 19:20 | 35.83015 | 139.36108 | 21989 ft | 370 kts | 267° |
| 2026-05-04 19:20 | 35.83052 | 139.32916 | 22788 ft | 373 kts | 267° |
| 2026-05-04 19:20 | 35.83098 | 139.29704 | 23597 ft | 375 kts | 267° |
| 2026-05-04 19:20 | 35.83148 | 139.26489 | 24294 ft | 376 kts | 267° |
| 2026-05-04 19:21 | 35.83199 | 139.23259 | 24974 ft | 376 kts | 266° |
| 2026-05-04 19:21 | 35.83246 | 139.20035 | 25667 ft | 375 kts | 266° |
| 2026-05-04 19:21 | 35.83285 | 139.16859 | 26376 ft | 373 kts | 264° |
| 2026-05-04 19:21 | 35.83217 | 139.13671 | 27106 ft | 369 kts | 262° |
| 2026-05-04 19:22 | 35.83063 | 139.10526 | 27879 ft | 367 kts | 260° |
| 2026-05-04 19:22 | 35.82884 | 139.07393 | 28660 ft | 364 kts | 260° |
| 2026-05-04 19:22 | 35.82709 | 139.04293 | 29379 ft | 359 kts | 259° |
| 2026-05-04 19:22 | 35.82548 | 139.01262 | 30241 ft | 350 kts | 259° |
| 2026-05-04 19:23 | 35.82394 | 138.98283 | 30977 ft | 346 kts | 259° |
| 2026-05-04 19:23 | 35.82244 | 138.95337 | 31667 ft | 342 kts | 259° |
| 2026-05-04 19:23 | 35.82099 | 138.92427 | 32404 ft | 337 kts | 259° |
| 2026-05-04 19:23 | 35.81960 | 138.89609 | 33131 ft | 330 kts | 259° |
| 2026-05-04 19:24 | 35.81822 | 138.86808 | 33915 ft | 323 kts | 259° |
| 2026-05-04 19:24 | 35.81689 | 138.84071 | 34571 ft | 316 kts | 259° |
| 2026-05-04 19:24 | 35.81556 | 138.81414 | 35282 ft | 307 kts | 259° |
| 2026-05-04 19:24 | 35.81425 | 138.78818 | 35876 ft | 300 kts | 259° |
| 2026-05-04 19:25 | 35.81293 | 138.76229 | 36120 ft | 306 kts | 259° |
| 2026-05-04 19:25 | 35.81015 | 138.70836 | 36128 ft | 323 kts | 260° |
| 2026-05-04 19:26 | 35.80719 | 138.65146 | 36098 ft | 341 kts | 260° |
| 2026-05-04 19:26 | 35.80402 | 138.59172 | 36124 ft | 357 kts | 260° |
| 2026-05-04 19:27 | 35.80077 | 138.52986 | 36112 ft | 371 kts | 261° |
| 2026-05-04 19:27 | 35.79739 | 138.46552 | 36109 ft | 379 kts | 261° |
| 2026-05-04 19:28 | 35.79387 | 138.40084 | 36101 ft | 376 kts | 261° |
| 2026-05-04 19:28 | 35.79043 | 138.33704 | 36099 ft | 376 kts | 264° |
| 2026-05-04 19:29 | 35.79743 | 138.28334 | 36126 ft | 389 kts | 277° |
| 2026-05-04 19:29 | 35.81565 | 138.21999 | 36127 ft | 391 kts | 278° |
| 2026-05-04 19:30 | 35.83277 | 138.15625 | 36143 ft | 391 kts | 278° |
| 2026-05-04 19:30 | 35.84986 | 138.09264 | 36122 ft | 394 kts | 278° |
| 2026-05-04 19:31 | 35.86726 | 138.02841 | 36145 ft | 396 kts | 278° |
| 2026-05-04 19:31 | 35.88476 | 137.96373 | 36133 ft | 397 kts | 278° |
| 2026-05-04 19:32 | 35.90225 | 137.89912 | 36103 ft | 396 kts | 278° |
| 2026-05-04 19:32 | 35.91951 | 137.83546 | 36152 ft | 395 kts | 278° |
| 2026-05-04 19:33 | 35.93685 | 137.77097 | 36132 ft | 396 kts | 278° |
| 2026-05-04 19:33 | 35.95415 | 137.70657 | 36159 ft | 395 kts | 278° |
| 2026-05-04 19:34 | 35.97139 | 137.64186 | 36148 ft | 396 kts | 279° |
| 2026-05-04 19:34 | 35.98868 | 137.57706 | 36154 ft | 396 kts | 279° |
| 2026-05-04 19:35 | 36.00579 | 137.51270 | 36161 ft | 397 kts | 278° |
| 2026-05-04 19:35 | 36.01419 | 137.44725 | 36172 ft | 380 kts | 264° |
| 2026-05-04 19:36 | 36.01218 | 137.38236 | 36141 ft | 379 kts | 264° |
| 2026-05-04 19:36 | 36.01208 | 137.31717 | 36167 ft | 378 kts | 265° |
| 2026-05-04 19:37 | 36.01225 | 137.25224 | 36152 ft | 377 kts | 265° |
| 2026-05-04 19:37 | 36.01223 | 137.18777 | 36154 ft | 378 kts | 264° |
| 2026-05-04 19:38 | 36.01207 | 137.12190 | 36164 ft | 387 kts | 265° |
| 2026-05-04 19:38 | 36.01185 | 137.05467 | 36162 ft | 394 kts | 265° |
| 2026-05-04 19:39 | 36.01161 | 136.98649 | 36162 ft | 398 kts | 265° |
| 2026-05-04 19:39 | 36.01134 | 136.91781 | 36158 ft | 401 kts | 265° |
| 2026-05-04 19:40 | 36.01102 | 136.84928 | 36160 ft | 401 kts | 265° |
| 2026-05-04 19:40 | 36.01071 | 136.78034 | 36158 ft | 401 kts | 265° |
| 2026-05-04 19:41 | 36.01025 | 136.71164 | 36176 ft | 399 kts | 265° |
| 2026-05-04 19:41 | 36.00981 | 136.64331 | 36146 ft | 399 kts | 265° |
| 2026-05-04 19:42 | 36.00935 | 136.57472 | 36160 ft | 399 kts | 265° |
| 2026-05-04 19:42 | 36.00886 | 136.50625 | 36152 ft | 398 kts | 265° |
| 2026-05-04 19:43 | 36.00835 | 136.43778 | 36154 ft | 398 kts | 265° |
| 2026-05-04 19:43 | 36.00771 | 136.36925 | 36144 ft | 398 kts | 265° |
| 2026-05-04 19:44 | 36.00698 | 136.30110 | 36144 ft | 399 kts | 265° |
| 2026-05-04 19:44 | 36.00624 | 136.23250 | 36143 ft | 399 kts | 265° |
| 2026-05-04 19:45 | 36.00551 | 136.16391 | 36148 ft | 399 kts | 265° |
| 2026-05-04 19:45 | 36.00474 | 136.09522 | 36148 ft | 399 kts | 265° |
| 2026-05-04 19:46 | 36.00398 | 136.02649 | 36147 ft | 400 kts | 265° |
| 2026-05-04 19:46 | 36.00316 | 135.95805 | 36142 ft | 401 kts | 265° |
| 2026-05-04 19:47 | 36.00229 | 135.88908 | 36142 ft | 402 kts | 265° |
| 2026-05-04 19:47 | 36.00139 | 135.82004 | 36144 ft | 402 kts | 265° |
| 2026-05-04 19:48 | 36.00044 | 135.75082 | 36147 ft | 402 kts | 265° |
| 2026-05-04 19:48 | 35.99945 | 135.68162 | 36142 ft | 402 kts | 265° |
| 2026-05-04 19:49 | 35.99843 | 135.61280 | 36143 ft | 402 kts | 265° |
| 2026-05-04 19:49 | 35.99736 | 135.54352 | 36145 ft | 403 kts | 265° |
| 2026-05-04 19:50 | 35.99626 | 135.47428 | 36147 ft | 403 kts | 265° |
| 2026-05-04 19:50 | 35.99511 | 135.40499 | 36146 ft | 403 kts | 265° |
| 2026-05-04 19:51 | 35.99393 | 135.33615 | 36152 ft | 404 kts | 265° |
| 2026-05-04 19:51 | 35.99271 | 135.26674 | 36152 ft | 404 kts | 265° |
| 2026-05-04 19:52 | 35.99145 | 135.19737 | 36150 ft | 404 kts | 265° |
| 2026-05-04 19:52 | 35.99015 | 135.12787 | 36148 ft | 405 kts | 265° |
| 2026-05-04 19:53 | 35.98881 | 135.05831 | 36151 ft | 405 kts | 265° |
| 2026-05-04 19:53 | 35.98743 | 134.98861 | 36155 ft | 406 kts | 265° |
| 2026-05-04 19:54 | 35.98603 | 134.91916 | 36158 ft | 406 kts | 265° |
| 2026-05-04 19:54 | 35.98461 | 134.84924 | 36153 ft | 407 kts | 265° |
| 2026-05-04 19:55 | 35.98309 | 134.77916 | 36145 ft | 408 kts | 265° |
| 2026-05-04 19:55 | 35.98146 | 134.70900 | 36150 ft | 408 kts | 265° |
| 2026-05-04 19:56 | 35.97979 | 134.63888 | 36143 ft | 409 kts | 265° |
| 2026-05-04 19:56 | 35.97814 | 134.56855 | 36144 ft | 410 kts | 265° |
| 2026-05-04 19:57 | 35.97648 | 134.49853 | 36144 ft | 410 kts | 265° |
| 2026-05-04 19:57 | 35.97476 | 134.42789 | 36160 ft | 411 kts | 265° |
| 2026-05-04 19:57 | 35.97391 | 134.39286 | 36493 ft | 404 kts | 265° |
| 2026-05-04 19:58 | 35.97307 | 134.35838 | 37030 ft | 396 kts | 265° |
| 2026-05-04 19:58 | 35.97224 | 134.32510 | 37544 ft | 389 kts | 265° |
| 2026-05-04 19:58 | 35.97139 | 134.29199 | 38079 ft | 382 kts | 265° |
| 2026-05-04 19:58 | 35.97058 | 134.26000 | 38585 ft | 365 kts | 264° |
| 2026-05-04 19:59 | 35.96979 | 134.22926 | 39058 ft | 351 kts | 264° |
| 2026-05-04 19:59 | 35.96899 | 134.19932 | 39505 ft | 344 kts | 264° |
| 2026-05-04 19:59 | 35.96820 | 134.17009 | 39947 ft | 337 kts | 264° |
| 2026-05-04 19:59 | 35.96741 | 134.14117 | 40156 ft | 338 kts | 264° |
| 2026-05-04 20:00 | 35.96660 | 134.11187 | 40159 ft | 344 kts | 264° |
| 2026-05-04 20:00 | 35.96499 | 134.05218 | 40155 ft | 354 kts | 264° |
| 2026-05-04 20:01 | 35.96334 | 133.99049 | 40160 ft | 364 kts | 264° |
| 2026-05-04 20:01 | 35.96150 | 133.92696 | 40161 ft | 374 kts | 264° |
| 2026-05-04 20:02 | 35.95944 | 133.86199 | 40159 ft | 383 kts | 264° |
| 2026-05-04 20:02 | 35.95732 | 133.79558 | 40153 ft | 390 kts | 264° |
| 2026-05-04 20:03 | 35.95520 | 133.72852 | 40156 ft | 396 kts | 265° |
| 2026-05-04 20:03 | 35.95303 | 133.65998 | 40149 ft | 401 kts | 265° |
| 2026-05-04 20:04 | 35.95081 | 133.59078 | 40149 ft | 406 kts | 265° |
| 2026-05-04 20:04 | 35.94853 | 133.52082 | 40146 ft | 409 kts | 265° |
| 2026-05-04 20:05 | 35.94619 | 133.45030 | 40145 ft | 412 kts | 265° |
| 2026-05-04 20:05 | 35.94420 | 133.39138 | 40147 ft | 414 kts | 265° |
| 2026-05-04 20:06 | 35.94175 | 133.32012 | 40145 ft | 416 kts | 265° |
| 2026-05-04 20:06 | 35.93927 | 133.24906 | 40144 ft | 417 kts | 265° |
| 2026-05-04 20:07 | 35.93672 | 133.17744 | 40141 ft | 418 kts | 265° |
| 2026-05-04 20:07 | 35.93413 | 133.10568 | 40138 ft | 418 kts | 264° |
| 2026-05-04 20:08 | 35.93149 | 133.03392 | 40139 ft | 418 kts | 264° |
| 2026-05-04 20:08 | 35.92883 | 132.96269 | 40137 ft | 417 kts | 264° |
| 2026-05-04 20:09 | 35.92612 | 132.89115 | 40140 ft | 417 kts | 264° |
| 2026-05-04 20:09 | 35.92336 | 132.81964 | 40137 ft | 416 kts | 264° |
| 2026-05-04 20:10 | 35.92057 | 132.74828 | 40141 ft | 416 kts | 264° |
| 2026-05-04 20:10 | 35.91772 | 132.67673 | 40136 ft | 416 kts | 264° |
| 2026-05-04 20:11 | 35.91486 | 132.60582 | 40134 ft | 416 kts | 264° |
| 2026-05-04 20:11 | 35.91194 | 132.53434 | 40136 ft | 417 kts | 264° |
| 2026-05-04 20:12 | 35.90896 | 132.46260 | 40135 ft | 417 kts | 264° |
| 2026-05-04 20:12 | 35.90596 | 132.39141 | 40134 ft | 418 kts | 264° |
| 2026-05-04 20:13 | 35.90290 | 132.31960 | 40133 ft | 419 kts | 264° |
| 2026-05-04 20:13 | 35.89979 | 132.24783 | 40128 ft | 419 kts | 264° |
| 2026-05-04 20:14 | 35.89663 | 132.17590 | 40131 ft | 420 kts | 264° |
| 2026-05-04 20:14 | 35.89343 | 132.10389 | 40130 ft | 420 kts | 264° |
| 2026-05-04 20:15 | 35.89018 | 132.03182 | 40131 ft | 421 kts | 264° |
| 2026-05-04 20:15 | 35.88690 | 131.96006 | 40130 ft | 421 kts | 264° |
| 2026-05-04 20:16 | 35.88356 | 131.88791 | 40129 ft | 421 kts | 264° |
| 2026-05-04 20:16 | 35.88017 | 131.81564 | 40126 ft | 422 kts | 264° |
| 2026-05-04 20:17 | 35.87674 | 131.74332 | 40128 ft | 422 kts | 264° |
| 2026-05-04 20:17 | 35.87327 | 131.67104 | 40127 ft | 423 kts | 264° |
| 2026-05-04 20:18 | 35.86974 | 131.59860 | 40124 ft | 423 kts | 264° |
| 2026-05-04 20:18 | 35.86617 | 131.52606 | 40128 ft | 423 kts | 264° |
| 2026-05-04 20:19 | 35.86257 | 131.45393 | 40126 ft | 424 kts | 264° |
| 2026-05-04 20:19 | 35.85890 | 131.38122 | 40124 ft | 424 kts | 264° |
| 2026-05-04 20:20 | 35.85520 | 131.30864 | 40122 ft | 424 kts | 264° |
| 2026-05-04 20:20 | 35.85144 | 131.23597 | 40121 ft | 424 kts | 264° |
| 2026-05-04 20:21 | 35.84767 | 131.16369 | 40120 ft | 425 kts | 264° |
| 2026-05-04 20:21 | 35.84189 | 131.05453 | 40123 ft | 425 kts | 264° |
| 2026-05-04 20:22 | 35.83799 | 130.98174 | 40121 ft | 425 kts | 264° |
| 2026-05-04 20:22 | 35.83406 | 130.90890 | 40122 ft | 426 kts | 264° |
| 2026-05-04 20:23 | 35.83013 | 130.83647 | 40119 ft | 426 kts | 264° |
| 2026-05-04 20:23 | 35.82611 | 130.76352 | 40123 ft | 426 kts | 264° |
| 2026-05-04 20:24 | 35.82648 | 130.69032 | 40120 ft | 430 kts | 276° |
| 2026-05-04 20:24 | 35.83753 | 130.61764 | 40121 ft | 431 kts | 275° |
| 2026-05-04 20:25 | 35.84679 | 130.54507 | 40119 ft | 431 kts | 275° |
| 2026-05-04 20:25 | 35.85580 | 130.47201 | 40120 ft | 431 kts | 275° |
| 2026-05-04 20:26 | 35.86493 | 130.39869 | 40121 ft | 432 kts | 275° |
| 2026-05-04 20:26 | 35.87410 | 130.32534 | 40120 ft | 432 kts | 275° |
| 2026-05-04 20:27 | 35.88320 | 130.25243 | 40121 ft | 432 kts | 275° |
| 2026-05-04 20:27 | 35.89232 | 130.17893 | 40119 ft | 432 kts | 275° |
| 2026-05-04 20:28 | 35.90132 | 130.10603 | 40121 ft | 432 kts | 275° |
| 2026-05-04 20:28 | 35.91035 | 130.03255 | 40117 ft | 432 kts | 275° |
| 2026-05-04 20:29 | 35.91934 | 129.95916 | 40119 ft | 433 kts | 275° |
| 2026-05-04 20:29 | 35.92835 | 129.88549 | 40117 ft | 433 kts | 275° |
| 2026-05-04 20:30 | 35.93720 | 129.81209 | 40118 ft | 433 kts | 275° |
| 2026-05-04 20:30 | 35.94583 | 129.73891 | 40119 ft | 433 kts | 275° |
| 2026-05-04 20:31 | 35.95452 | 129.66528 | 40116 ft | 433 kts | 275° |
| 2026-05-04 20:31 | 35.96325 | 129.59161 | 40119 ft | 433 kts | 275° |
| 2026-05-04 20:32 | 35.97189 | 129.51792 | 40111 ft | 430 kts | 275° |
| 2026-05-04 20:32 | 35.99122 | 129.44868 | 40128 ft | 436 kts | 296° |
| 2026-05-04 20:33 | 36.02755 | 129.38797 | 40146 ft | 445 kts | 300° |
| 2026-05-04 20:33 | 36.06371 | 129.32555 | 40135 ft | 448 kts | 298° |
| 2026-05-04 20:34 | 36.09953 | 129.26223 | 40135 ft | 451 kts | 299° |
| 2026-05-04 20:34 | 36.13587 | 129.19857 | 40135 ft | 454 kts | 299° |
| 2026-05-04 20:35 | 36.17249 | 129.13474 | 40141 ft | 456 kts | 299° |
| 2026-05-04 20:35 | 36.20925 | 129.07062 | 40134 ft | 456 kts | 299° |
| 2026-05-04 20:36 | 36.24599 | 129.00640 | 40132 ft | 456 kts | 300° |
| 2026-05-04 20:36 | 36.28262 | 128.94226 | 40136 ft | 455 kts | 300° |
| 2026-05-04 20:37 | 36.31921 | 128.87812 | 40138 ft | 454 kts | 300° |
| 2026-05-04 20:37 | 36.35536 | 128.81445 | 40138 ft | 453 kts | 300° |
| 2026-05-04 20:38 | 36.39164 | 128.75043 | 40124 ft | 453 kts | 300° |
| 2026-05-04 20:38 | 36.42792 | 128.68642 | 40071 ft | 454 kts | 300° |
| 2026-05-04 20:39 | 36.44618 | 128.65415 | 39659 ft | 458 kts | 300° |
| 2026-05-04 20:39 | 36.46454 | 128.62173 | 39185 ft | 458 kts | 300° |
| 2026-05-04 20:39 | 36.48283 | 128.58944 | 38306 ft | 458 kts | 300° |
| 2026-05-04 20:39 | 36.50111 | 128.55713 | 37369 ft | 457 kts | 300° |
| 2026-05-04 20:40 | 36.51939 | 128.52478 | 36499 ft | 456 kts | 301° |
| 2026-05-04 20:40 | 36.53765 | 128.49245 | 35631 ft | 456 kts | 301° |
| 2026-05-04 20:40 | 36.55581 | 128.46024 | 34803 ft | 454 kts | 301° |
| 2026-05-04 20:40 | 36.57373 | 128.42846 | 33984 ft | 453 kts | 301° |
| 2026-05-04 20:41 | 36.59182 | 128.39634 | 33052 ft | 452 kts | 302° |
| 2026-05-04 20:41 | 36.60987 | 128.36426 | 32139 ft | 451 kts | 302° |
| 2026-05-04 20:41 | 36.62786 | 128.33215 | 31256 ft | 451 kts | 302° |
| 2026-05-04 20:41 | 36.64582 | 128.30023 | 30424 ft | 451 kts | 302° |
| 2026-05-04 20:42 | 36.66400 | 128.26841 | 29466 ft | 451 kts | 303° |
| 2026-05-04 20:42 | 36.67613 | 128.24732 | 28823 ft | 451 kts | 303° |
| 2026-05-04 20:42 | 36.69443 | 128.21549 | 27982 ft | 450 kts | 303° |
| 2026-05-04 20:42 | 36.71259 | 128.18377 | 27219 ft | 447 kts | 303° |
| 2026-05-04 20:43 | 36.73053 | 128.15229 | 26483 ft | 444 kts | 303° |
| 2026-05-04 20:43 | 36.74837 | 128.12091 | 25752 ft | 442 kts | 303° |
| 2026-05-04 20:43 | 36.76609 | 128.08971 | 25049 ft | 440 kts | 303° |
| 2026-05-04 20:43 | 36.78374 | 128.05869 | 24409 ft | 437 kts | 303° |
| 2026-05-04 20:44 | 36.80102 | 128.02836 | 23832 ft | 433 kts | 304° |
| 2026-05-04 20:44 | 36.81842 | 127.99780 | 23166 ft | 429 kts | 304° |
| 2026-05-04 20:44 | 36.83562 | 127.96748 | 22495 ft | 425 kts | 304° |
| 2026-05-04 20:44 | 36.85265 | 127.93739 | 21833 ft | 422 kts | 303° |
| 2026-05-04 20:45 | 36.86946 | 127.90741 | 21213 ft | 418 kts | 303° |
| 2026-05-04 20:45 | 36.88598 | 127.87790 | 20704 ft | 412 kts | 303° |
| 2026-05-04 20:45 | 36.90235 | 127.84868 | 20184 ft | 407 kts | 304° |
| 2026-05-04 20:45 | 36.91848 | 127.81987 | 19712 ft | 403 kts | 304° |
| 2026-05-04 20:46 | 36.93445 | 127.79130 | 19221 ft | 400 kts | 304° |
| 2026-05-04 20:46 | 36.95044 | 127.76287 | 18752 ft | 400 kts | 304° |
| 2026-05-04 20:46 | 36.96631 | 127.73480 | 18321 ft | 401 kts | 304° |
| 2026-05-04 20:46 | 36.98244 | 127.70633 | 18141 ft | 401 kts | 304° |
| 2026-05-04 20:47 | 36.99853 | 127.67785 | 18126 ft | 400 kts | 304° |
| 2026-05-04 20:47 | 37.01454 | 127.64939 | 18121 ft | 400 kts | 304° |
| 2026-05-04 20:47 | 37.03056 | 127.62082 | 18117 ft | 400 kts | 304° |
| 2026-05-04 20:47 | 37.04648 | 127.59215 | 17973 ft | 402 kts | 304° |
| 2026-05-04 20:48 | 37.06241 | 127.56342 | 17700 ft | 401 kts | 304° |
| 2026-05-04 20:48 | 37.07827 | 127.53488 | 17433 ft | 397 kts | 304° |
| 2026-05-04 20:48 | 37.09401 | 127.50658 | 17176 ft | 394 kts | 304° |
| 2026-05-04 20:48 | 37.10968 | 127.47838 | 16914 ft | 393 kts | 303° |
| 2026-05-04 20:49 | 37.12522 | 127.45032 | 16655 ft | 391 kts | 303° |
| 2026-05-04 20:49 | 37.14072 | 127.42241 | 16408 ft | 390 kts | 303° |
| 2026-05-04 20:49 | 37.15622 | 127.39455 | 16171 ft | 389 kts | 303° |
| 2026-05-04 20:49 | 37.17163 | 127.36680 | 15915 ft | 388 kts | 303° |
| 2026-05-04 20:50 | 37.18700 | 127.33904 | 15672 ft | 387 kts | 303° |
| 2026-05-04 20:50 | 37.20231 | 127.31124 | 15429 ft | 386 kts | 303° |
| 2026-05-04 20:50 | 37.21755 | 127.28355 | 15185 ft | 385 kts | 303° |
| 2026-05-04 20:50 | 37.23256 | 127.25632 | 14996 ft | 384 kts | 303° |
| 2026-05-04 20:51 | 37.24774 | 127.22884 | 14827 ft | 381 kts | 303° |
| 2026-05-04 20:51 | 37.26262 | 127.20194 | 14646 ft | 370 kts | 303° |
| 2026-05-04 20:51 | 37.27709 | 127.17577 | 14460 ft | 358 kts | 302° |
| 2026-05-04 20:51 | 37.29105 | 127.15050 | 14285 ft | 347 kts | 302° |
| 2026-05-04 20:52 | 37.30461 | 127.12594 | 14108 ft | 337 kts | 302° |
| 2026-05-04 20:52 | 37.31774 | 127.10212 | 13918 ft | 327 kts | 302° |
| 2026-05-04 20:52 | 37.33053 | 127.07892 | 13730 ft | 319 kts | 302° |
| 2026-05-04 20:52 | 37.34300 | 127.05631 | 13525 ft | 310 kts | 302° |
| 2026-05-04 20:53 | 37.35513 | 127.03430 | 13321 ft | 303 kts | 302° |
| 2026-05-04 20:53 | 37.36699 | 127.01279 | 13137 ft | 295 kts | 302° |
| 2026-05-04 20:53 | 37.37843 | 126.99204 | 13055 ft | 283 kts | 302° |
| 2026-05-04 20:53 | 37.38940 | 126.97208 | 12996 ft | 271 kts | 301° |
| 2026-05-04 20:54 | 37.39986 | 126.95300 | 12981 ft | 257 kts | 301° |
| 2026-05-04 20:54 | 37.40985 | 126.93469 | 12992 ft | 253 kts | 301° |
| 2026-05-04 20:54 | 37.42061 | 126.91703 | 12808 ft | 257 kts | 308° |
| 2026-05-04 20:54 | 37.43257 | 126.90036 | 12416 ft | 263 kts | 310° |
| 2026-05-04 20:55 | 37.44515 | 126.88336 | 12013 ft | 267 kts | 310° |
| 2026-05-04 20:55 | 37.45789 | 126.86613 | 11600 ft | 269 kts | 310° |
| 2026-05-04 20:55 | 37.47069 | 126.84872 | 11201 ft | 272 kts | 310° |
| 2026-05-04 20:55 | 37.48357 | 126.83112 | 10790 ft | 275 kts | 310° |
| 2026-05-04 20:56 | 37.49657 | 126.81329 | 10402 ft | 277 kts | 310° |
| 2026-05-04 20:56 | 37.50932 | 126.79571 | 10012 ft | 279 kts | 310° |
| 2026-05-04 20:56 | 37.51800 | 126.78370 | 9726 ft | 281 kts | 310° |
| 2026-05-04 20:56 | 37.52845 | 126.76924 | 9389 ft | 282 kts | 310° |
| 2026-05-04 20:57 | 37.54149 | 126.75111 | 9048 ft | 281 kts | 310° |
| 2026-05-04 20:57 | 37.55438 | 126.73324 | 9007 ft | 268 kts | 309° |
| 2026-05-04 20:57 | 37.56671 | 126.71608 | 8822 ft | 262 kts | 309° |
| 2026-05-04 20:57 | 37.57889 | 126.69913 | 8552 ft | 259 kts | 309° |
| 2026-05-04 20:58 | 37.59093 | 126.68242 | 8288 ft | 256 kts | 309° |
| 2026-05-04 20:58 | 37.60284 | 126.66590 | 8036 ft | 253 kts | 309° |
| 2026-05-04 20:58 | 37.61463 | 126.64954 | 7607 ft | 258 kts | 309° |
| 2026-05-04 20:58 | 37.62682 | 126.63254 | 7129 ft | 265 kts | 309° |
| 2026-05-04 20:59 | 37.63932 | 126.61511 | 6661 ft | 270 kts | 309° |
| 2026-05-04 20:59 | 37.65200 | 126.59735 | 6208 ft | 274 kts | 308° |
| 2026-05-04 20:59 | 37.66200 | 126.57763 | 6038 ft | 257 kts | 290° |
| 2026-05-04 20:59 | 37.66807 | 126.55710 | 6022 ft | 242 kts | 286° |
| 2026-05-04 21:00 | 37.67354 | 126.53740 | 5860 ft | 236 kts | 287° |
| 2026-05-04 21:00 | 37.67913 | 126.51784 | 5492 ft | 239 kts | 287° |
| 2026-05-04 21:00 | 37.68494 | 126.49798 | 5079 ft | 244 kts | 287° |
| 2026-05-04 21:00 | 37.68869 | 126.47731 | 4649 ft | 242 kts | 265° |
| 2026-05-04 21:01 | 37.68616 | 126.45663 | 4199 ft | 237 kts | 257° |
| 2026-05-04 21:01 | 37.68328 | 126.43620 | 3783 ft | 241 kts | 258° |
| 2026-05-04 21:01 | 37.68048 | 126.41519 | 3372 ft | 245 kts | 258° |
| 2026-05-04 21:01 | 37.67770 | 126.39385 | 3077 ft | 244 kts | 258° |
| 2026-05-04 21:02 | 37.67501 | 126.37323 | 3042 ft | 231 kts | 258° |
| 2026-05-04 21:02 | 37.67246 | 126.35380 | 3032 ft | 218 kts | 258° |
| 2026-05-04 21:02 | 37.67001 | 126.33536 | 3015 ft | 207 kts | 258° |
| 2026-05-04 21:02 | 37.66726 | 126.31776 | 3031 ft | 205 kts | 246° |
| 2026-05-04 21:03 | 37.65834 | 126.30396 | 3037 ft | 206 kts | 211° |
| 2026-05-04 21:03 | 37.64564 | 126.29685 | 3028 ft | 196 kts | 201° |
| 2026-05-04 21:03 | 37.63305 | 126.29138 | 3019 ft | 187 kts | 199° |
| 2026-05-04 21:03 | 37.62029 | 126.28979 | 3050 ft | 191 kts | 168° |
| 2026-05-04 21:04 | 37.60833 | 126.29724 | 3047 ft | 196 kts | 152° |
| 2026-05-04 21:04 | 37.59641 | 126.30605 | 3048 ft | 201 kts | 150° |
| 2026-05-04 21:04 | 37.58447 | 126.31600 | 2786 ft | 208 kts | 148° |
| 2026-05-04 21:04 | 37.57266 | 126.32650 | 2505 ft | 206 kts | 147° |
| 2026-05-04 21:05 | 37.56111 | 126.33686 | 2242 ft | 198 kts | 147° |
| 2026-05-04 21:05 | 37.55018 | 126.34665 | 1963 ft | 190 kts | 148° |
| 2026-05-04 21:05 | 37.53957 | 126.35610 | 1710 ft | 184 kts | 147° |
| 2026-05-04 21:05 | 37.52945 | 126.36513 | 1467 ft | 174 kts | 146° |
| 2026-05-04 21:06 | 37.51966 | 126.37385 | 1223 ft | 171 kts | 146° |
| 2026-05-04 21:06 | 37.50993 | 126.38251 | 998 ft | 171 kts | 145° |
| 2026-05-04 21:06 | 37.50075 | 126.39068 | 777 ft | 162 kts | 144° |
| 2026-05-04 21:06 | 37.49569 | 126.39519 | 616 ft | 159 kts | 144° |
| 2026-05-04 21:07 | 37.48779 | 126.40223 | 442 ft | 155 kts | 143° |
| 2026-05-04 21:07 | 37.47908 | 126.41004 | 230 ft | 152 kts | 141° |
| 2026-05-04 21:07 | 37.47057 | 126.41761 | 38 ft | 143 kts | 141° |
| 2026-05-04 21:07 | 37.46396 | 126.42356 | 35 ft | 85 kts | 148° |
| 2026-05-04 21:08 | 37.46101 | 126.42614 | 37 ft | 22 kts | 145° |
| 2026-05-04 21:08 | 37.45962 | 126.42735 | 37 ft | 28 kts | 145° |
| 2026-05-04 21:08 | 37.45800 | 126.42878 | 37 ft | 29 kts | 144° |
| 2026-05-04 21:08 | 37.45639 | 126.43091 | 37 ft | 33 kts | 121° |
| 2026-05-04 21:09 | 37.45544 | 126.43329 | 37 ft | 28 kts | 120° |
| 2026-05-04 21:09 | 37.45419 | 126.43482 | 37 ft | 22 kts | 143° |
| 2026-05-04 21:09 | 37.45375 | 126.43644 | 37 ft | 19 kts | 117° |
| 2026-05-04 21:09 | 37.45283 | 126.43754 | 37 ft | 17 kts | 143° |
| 2026-05-04 21:10 | 37.45201 | 126.43828 | 37 ft | 14 kts | 144° |
| 2026-05-04 21:10 | 37.45123 | 126.43897 | 37 ft | 14 kts | 146° |
| 2026-05-04 21:10 | 37.45063 | 126.43985 | 37 ft | 14 kts | 103° |
| 2026-05-04 21:10 | 37.45095 | 126.44096 | 37 ft | 15 kts | 58° |
| 2026-05-04 21:11 | 37.45153 | 126.44208 | 37 ft | 16 kts | 56° |
| 2026-05-04 21:11 | 37.45220 | 126.44327 | 37 ft | 17 kts | 54° |
| 2026-05-04 21:11 | 37.45291 | 126.44451 | 37 ft | 18 kts | 50° |
| 2026-05-04 21:11 | 37.45396 | 126.44496 | 37 ft | 0 kts | 27° |
| 2026-05-04 21:12 | 37.45399 | 126.44500 | 37 ft | 7 kts | 37° |
| 2026-05-04 21:12 | 37.45430 | 126.44678 | 37 ft | 31 kts | 65° |
| 2026-05-04 21:12 | 37.45507 | 126.44752 | 37 ft | 9 kts | 350° |
| 2026-05-04 21:12 | 37.45604 | 126.44700 | 37 ft | 17 kts | 328° |
| 2026-05-04 21:13 | 37.45609 | 126.44696 | 37 ft | 0 kts | 328° |